sensor_id;sensor_type;location;lat;lon;timestamp;P1;durP1;ratioP1;P2;durP2;ratioP2
1829;SDS011;914;48.118;11.600;2023-04-03T00:01:13;8.30;;;6.87;;
1829;SDS011;914;48.118;11.600;2023-04-03T00:03:39;8.67;;;6.63;;
1829;SDS011;914;48.118;11.600;2023-04-03T00:06:06;7.73;;;6.93;;
1829;SDS011;914;48.118;11.600;2023-04-03T00:08:34;9.40;;;6.70;;
1829;SDS011;914;48.118;11.600;2023-04-03T00:11:00;6.73;;;6.00;;
1829;SDS011;914;48.118;11.600;2023-04-03T00:13:26;8.07;;;6.93;;
1829;SDS011;914;48.118;11.600;2023-04-03T00:15:51;7.80;;;6.63;;
1829;SDS011;914;48.118;11.600;2023-04-03T00:18:17;7.70;;;6.87;;
1829;SDS011;914;48.118;11.600;2023-04-03T00:20:43;7.37;;;6.50;;
1829;SDS011;914;48.118;11.600;2023-04-03T00:23:09;7.83;;;6.97;;
1829;SDS011;914;48.118;11.600;2023-04-03T00:25:35;8.67;;;6.70;;
1829;SDS011;914;48.118;11.600;2023-04-03T00:28:01;7.87;;;6.67;;
1829;SDS011;914;48.118;11.600;2023-04-03T00:30:27;8.67;;;7.20;;
1829;SDS011;914;48.118;11.600;2023-04-03T00:32:56;9.07;;;7.47;;
1829;SDS011;914;48.118;11.600;2023-04-03T00:35:22;7.30;;;6.40;;
1829;SDS011;914;48.118;11.600;2023-04-03T00:37:50;8.27;;;7.20;;
1829;SDS011;914;48.118;11.600;2023-04-03T00:40:17;8.13;;;7.27;;
1829;SDS011;914;48.118;11.600;2023-04-03T00:42:43;8.50;;;6.97;;
1829;SDS011;914;48.118;11.600;2023-04-03T00:48:07;8.40;;;6.57;;
1829;SDS011;914;48.118;11.600;2023-04-03T00:50:38;8.37;;;7.23;;
1829;SDS011;914;48.118;11.600;2023-04-03T00:53:09;7.07;;;6.03;;
1829;SDS011;914;48.118;11.600;2023-04-03T00:55:38;7.57;;;6.77;;
1829;SDS011;914;48.118;11.600;2023-04-03T00:58:05;8.93;;;6.70;;
1829;SDS011;914;48.118;11.600;2023-04-03T01:00:32;7.53;;;6.33;;
1829;SDS011;914;48.118;11.600;2023-04-03T01:03:00;9.13;;;6.33;;
1829;SDS011;914;48.118;11.600;2023-04-03T01:05:26;8.30;;;7.10;;
1829;SDS011;914;48.118;11.600;2023-04-03T01:07:52;8.20;;;7.03;;
1829;SDS011;914;48.118;11.600;2023-04-03T01:10:18;11.10;;;6.93;;
1829;SDS011;914;48.118;11.600;2023-04-03T01:12:46;8.23;;;6.70;;
1829;SDS011;914;48.118;11.600;2023-04-03T01:15:18;7.80;;;6.30;;
1829;SDS011;914;48.118;11.600;2023-04-03T01:17:53;7.33;;;6.27;;
1829;SDS011;914;48.118;11.600;2023-04-03T01:28:13;7.80;;;6.33;;
1829;SDS011;914;48.118;11.600;2023-04-03T01:31:28;6.97;;;6.27;;
1829;SDS011;914;48.118;11.600;2023-04-03T01:33:33;7.90;;;6.13;;
1829;SDS011;914;48.118;11.600;2023-04-03T01:36:00;7.00;;;6.30;;
1829;SDS011;914;48.118;11.600;2023-04-03T01:38:26;7.00;;;6.23;;
1829;SDS011;914;48.118;11.600;2023-04-03T01:40:51;8.40;;;6.77;;
1829;SDS011;914;48.118;11.600;2023-04-03T01:43:17;8.03;;;6.40;;
1829;SDS011;914;48.118;11.600;2023-04-03T01:45:43;8.73;;;6.40;;
1829;SDS011;914;48.118;11.600;2023-04-03T01:48:08;7.27;;;6.40;;
1829;SDS011;914;48.118;11.600;2023-04-03T01:50:34;6.67;;;5.97;;
1829;SDS011;914;48.118;11.600;2023-04-03T01:53:00;6.70;;;6.10;;
1829;SDS011;914;48.118;11.600;2023-04-03T01:55:25;9.37;;;5.90;;
1829;SDS011;914;48.118;11.600;2023-04-03T01:57:51;7.30;;;6.60;;
1829;SDS011;914;48.118;11.600;2023-04-03T02:00:17;8.03;;;5.93;;
1829;SDS011;914;48.118;11.600;2023-04-03T02:02:42;7.27;;;6.00;;
1829;SDS011;914;48.118;11.600;2023-04-03T02:05:08;6.73;;;6.13;;
1829;SDS011;914;48.118;11.600;2023-04-03T02:07:34;7.70;;;6.53;;
1829;SDS011;914;48.118;11.600;2023-04-03T02:10:00;6.83;;;6.00;;
1829;SDS011;914;48.118;11.600;2023-04-03T02:12:25;7.90;;;6.70;;
1829;SDS011;914;48.118;11.600;2023-04-03T02:14:51;8.43;;;7.10;;
1829;SDS011;914;48.118;11.600;2023-04-03T02:17:16;8.00;;;6.33;;
1829;SDS011;914;48.118;11.600;2023-04-03T02:19:42;8.00;;;6.17;;
1829;SDS011;914;48.118;11.600;2023-04-03T02:22:08;6.60;;;5.87;;
1829;SDS011;914;48.118;11.600;2023-04-03T02:24:34;7.70;;;6.50;;
1829;SDS011;914;48.118;11.600;2023-04-03T02:26:59;6.67;;;5.97;;
1829;SDS011;914;48.118;11.600;2023-04-03T02:29:25;6.00;;;5.47;;
1829;SDS011;914;48.118;11.600;2023-04-03T02:31:51;7.23;;;5.57;;
1829;SDS011;914;48.118;11.600;2023-04-03T02:34:17;6.83;;;5.57;;
1829;SDS011;914;48.118;11.600;2023-04-03T02:36:43;6.13;;;5.53;;
1829;SDS011;914;48.118;11.600;2023-04-03T02:39:09;8.63;;;6.07;;
1829;SDS011;914;48.118;11.600;2023-04-03T02:41:35;5.30;;;4.80;;
1829;SDS011;914;48.118;11.600;2023-04-03T02:44:01;5.30;;;4.80;;
1829;SDS011;914;48.118;11.600;2023-04-03T02:46:27;5.23;;;4.73;;
1829;SDS011;914;48.118;11.600;2023-04-03T02:48:53;5.17;;;4.67;;
1829;SDS011;914;48.118;11.600;2023-04-03T02:51:19;5.83;;;5.03;;
1829;SDS011;914;48.118;11.600;2023-04-03T02:53:45;7.33;;;4.93;;
1829;SDS011;914;48.118;11.600;2023-04-03T02:56:10;5.10;;;4.60;;
1829;SDS011;914;48.118;11.600;2023-04-03T02:58:36;6.13;;;4.57;;
1829;SDS011;914;48.118;11.600;2023-04-03T03:01:02;5.60;;;4.10;;
1829;SDS011;914;48.118;11.600;2023-04-03T03:03:28;4.10;;;3.73;;
1829;SDS011;914;48.118;11.600;2023-04-03T03:06:04;4.50;;;4.10;;
1829;SDS011;914;48.118;11.600;2023-04-03T03:08:31;4.30;;;3.90;;
1829;SDS011;914;48.118;11.600;2023-04-03T03:10:57;4.40;;;4.00;;
1829;SDS011;914;48.118;11.600;2023-04-03T03:13:22;5.03;;;3.87;;
1829;SDS011;914;48.118;11.600;2023-04-03T03:15:48;3.73;;;3.43;;
1829;SDS011;914;48.118;11.600;2023-04-03T03:18:14;4.43;;;4.03;;
1829;SDS011;914;48.118;11.600;2023-04-03T03:20:40;5.00;;;3.80;;
1829;SDS011;914;48.118;11.600;2023-04-03T03:23:06;3.10;;;2.80;;
1829;SDS011;914;48.118;11.600;2023-04-03T03:25:31;3.57;;;3.27;;
1829;SDS011;914;48.118;11.600;2023-04-03T03:27:57;3.20;;;2.90;;
1829;SDS011;914;48.118;11.600;2023-04-03T03:30:23;4.07;;;3.60;;
1829;SDS011;914;48.118;11.600;2023-04-03T03:32:48;4.47;;;3.57;;
1829;SDS011;914;48.118;11.600;2023-04-03T03:35:14;3.77;;;3.47;;
1829;SDS011;914;48.118;11.600;2023-04-03T03:37:40;4.60;;;3.60;;
1829;SDS011;914;48.118;11.600;2023-04-03T03:40:05;3.73;;;3.27;;
1829;SDS011;914;48.118;11.600;2023-04-03T03:42:31;3.97;;;2.80;;
1829;SDS011;914;48.118;11.600;2023-04-03T03:44:57;4.33;;;3.10;;
1829;SDS011;914;48.118;11.600;2023-04-03T03:47:23;3.83;;;3.10;;
1829;SDS011;914;48.118;11.600;2023-04-03T03:49:48;3.20;;;3.00;;
1829;SDS011;914;48.118;11.600;2023-04-03T03:52:14;3.87;;;3.40;;
1829;SDS011;914;48.118;11.600;2023-04-03T03:54:39;3.60;;;2.83;;
1829;SDS011;914;48.118;11.600;2023-04-03T03:57:05;3.27;;;3.00;;
1829;SDS011;914;48.118;11.600;2023-04-03T03:59:31;3.33;;;3.03;;
1829;SDS011;914;48.118;11.600;2023-04-03T04:01:57;3.73;;;3.30;;
1829;SDS011;914;48.118;11.600;2023-04-03T04:04:22;3.70;;;3.30;;
1829;SDS011;914;48.118;11.600;2023-04-03T04:06:48;3.83;;;3.53;;
1829;SDS011;914;48.118;11.600;2023-04-03T04:09:13;3.70;;;3.40;;
1829;SDS011;914;48.118;11.600;2023-04-03T04:11:39;3.83;;;3.03;;
1829;SDS011;914;48.118;11.600;2023-04-03T04:14:05;3.83;;;3.10;;
1829;SDS011;914;48.118;11.600;2023-04-03T04:16:32;4.00;;;3.33;;
1829;SDS011;914;48.118;11.600;2023-04-03T04:18:57;3.47;;;3.13;;
1829;SDS011;914;48.118;11.600;2023-04-03T04:21:23;2.90;;;2.70;;
1829;SDS011;914;48.118;11.600;2023-04-03T04:23:48;3.13;;;2.87;;
1829;SDS011;914;48.118;11.600;2023-04-03T04:26:14;3.43;;;3.13;;
1829;SDS011;914;48.118;11.600;2023-04-03T04:28:40;3.80;;;3.10;;
1829;SDS011;914;48.118;11.600;2023-04-03T04:31:06;3.83;;;3.40;;
1829;SDS011;914;48.118;11.600;2023-04-03T04:33:31;3.40;;;3.10;;
1829;SDS011;914;48.118;11.600;2023-04-03T04:35:57;3.70;;;3.30;;
1829;SDS011;914;48.118;11.600;2023-04-03T04:38:23;3.57;;;3.00;;
1829;SDS011;914;48.118;11.600;2023-04-03T04:40:48;3.67;;;3.30;;
1829;SDS011;914;48.118;11.600;2023-04-03T04:43:15;3.60;;;3.27;;
1829;SDS011;914;48.118;11.600;2023-04-03T04:45:41;4.10;;;3.07;;
1829;SDS011;914;48.118;11.600;2023-04-03T04:48:06;2.93;;;2.73;;
1829;SDS011;914;48.118;11.600;2023-04-03T04:50:33;3.47;;;3.17;;
1829;SDS011;914;48.118;11.600;2023-04-03T04:52:58;3.20;;;2.90;;
1829;SDS011;914;48.118;11.600;2023-04-03T04:55:24;3.60;;;3.20;;
1829;SDS011;914;48.118;11.600;2023-04-03T04:57:50;4.10;;;3.63;;
1829;SDS011;914;48.118;11.600;2023-04-03T05:00:15;3.97;;;3.20;;
1829;SDS011;914;48.118;11.600;2023-04-03T05:02:42;3.90;;;3.20;;
1829;SDS011;914;48.118;11.600;2023-04-03T05:05:08;3.50;;;3.20;;
1829;SDS011;914;48.118;11.600;2023-04-03T05:07:34;4.80;;;3.50;;
1829;SDS011;914;48.118;11.600;2023-04-03T05:10:00;3.27;;;2.90;;
1829;SDS011;914;48.118;11.600;2023-04-03T05:12:27;3.23;;;2.93;;
1829;SDS011;914;48.118;11.600;2023-04-03T05:14:53;3.00;;;2.80;;
1829;SDS011;914;48.118;11.600;2023-04-03T05:17:19;4.83;;;3.43;;
1829;SDS011;914;48.118;11.600;2023-04-03T05:19:45;4.67;;;3.30;;
1829;SDS011;914;48.118;11.600;2023-04-03T05:22:11;3.63;;;3.10;;
1829;SDS011;914;48.118;11.600;2023-04-03T05:24:36;3.40;;;3.10;;
1829;SDS011;914;48.118;11.600;2023-04-03T05:27:02;3.23;;;2.93;;
1829;SDS011;914;48.118;11.600;2023-04-03T05:29:28;5.77;;;3.30;;
1829;SDS011;914;48.118;11.600;2023-04-03T05:31:53;3.77;;;2.90;;
1829;SDS011;914;48.118;11.600;2023-04-03T05:34:19;3.87;;;3.43;;
1829;SDS011;914;48.118;11.600;2023-04-03T05:36:45;5.63;;;3.13;;
1829;SDS011;914;48.118;11.600;2023-04-03T05:39:10;3.17;;;2.90;;
1829;SDS011;914;48.118;11.600;2023-04-03T05:41:36;3.80;;;3.10;;
1829;SDS011;914;48.118;11.600;2023-04-03T05:44:02;3.73;;;3.30;;
1829;SDS011;914;48.118;11.600;2023-04-03T05:46:28;4.17;;;3.53;;
1829;SDS011;914;48.118;11.600;2023-04-03T05:48:53;3.07;;;2.80;;
1829;SDS011;914;48.118;11.600;2023-04-03T05:51:21;5.73;;;3.20;;
1829;SDS011;914;48.118;11.600;2023-04-03T05:53:52;3.33;;;2.83;;
1829;SDS011;914;48.118;11.600;2023-04-03T05:56:27;4.30;;;3.40;;
1829;SDS011;914;48.118;11.600;2023-04-03T05:58:56;4.67;;;3.10;;
1829;SDS011;914;48.118;11.600;2023-04-03T06:01:22;4.10;;;3.23;;
1829;SDS011;914;48.118;11.600;2023-04-03T06:03:48;3.13;;;2.83;;
1829;SDS011;914;48.118;11.600;2023-04-03T06:06:14;4.43;;;3.20;;
1829;SDS011;914;48.118;11.600;2023-04-03T06:08:40;3.30;;;2.90;;
1829;SDS011;914;48.118;11.600;2023-04-03T06:11:06;4.80;;;3.10;;
1829;SDS011;914;48.118;11.600;2023-04-03T06:13:33;3.63;;;3.33;;
1829;SDS011;914;48.118;11.600;2023-04-03T06:16:00;4.83;;;3.30;;
1829;SDS011;914;48.118;11.600;2023-04-03T06:18:26;4.20;;;3.13;;
1829;SDS011;914;48.118;11.600;2023-04-03T06:20:51;3.60;;;3.30;;
1829;SDS011;914;48.118;11.600;2023-04-03T06:23:17;3.70;;;3.40;;
1829;SDS011;914;48.118;11.600;2023-04-03T06:25:43;5.67;;;3.40;;
1829;SDS011;914;48.118;11.600;2023-04-03T06:28:09;5.13;;;3.80;;
1829;SDS011;914;48.118;11.600;2023-04-03T06:30:35;4.40;;;3.60;;
1829;SDS011;914;48.118;11.600;2023-04-03T06:33:01;3.60;;;3.30;;
1829;SDS011;914;48.118;11.600;2023-04-03T06:35:27;3.93;;;3.57;;
1829;SDS011;914;48.118;11.600;2023-04-03T06:37:58;4.70;;;3.67;;
1829;SDS011;914;48.118;11.600;2023-04-03T06:40:24;3.73;;;3.40;;
1829;SDS011;914;48.118;11.600;2023-04-03T06:42:51;3.70;;;3.33;;
1829;SDS011;914;48.118;11.600;2023-04-03T06:45:17;4.17;;;3.33;;
1829;SDS011;914;48.118;11.600;2023-04-03T06:47:42;4.17;;;3.77;;
1829;SDS011;914;48.118;11.600;2023-04-03T06:50:09;4.10;;;3.70;;
1829;SDS011;914;48.118;11.600;2023-04-03T06:52:36;5.10;;;3.63;;
1829;SDS011;914;48.118;11.600;2023-04-03T06:55:06;3.30;;;3.00;;
1829;SDS011;914;48.118;11.600;2023-04-03T06:57:33;4.00;;;3.53;;
1829;SDS011;914;48.118;11.600;2023-04-03T06:59:58;3.10;;;2.80;;
1829;SDS011;914;48.118;11.600;2023-04-03T07:02:24;9.37;;;3.60;;
1829;SDS011;914;48.118;11.600;2023-04-03T07:04:51;5.83;;;3.67;;
1829;SDS011;914;48.118;11.600;2023-04-03T07:07:17;6.23;;;3.47;;
1829;SDS011;914;48.118;11.600;2023-04-03T07:09:43;8.53;;;3.60;;
1829;SDS011;914;48.118;11.600;2023-04-03T07:12:08;7.73;;;3.87;;
1829;SDS011;914;48.118;11.600;2023-04-03T07:14:34;8.57;;;4.00;;
1829;SDS011;914;48.118;11.600;2023-04-03T07:17:00;7.87;;;4.00;;
1829;SDS011;914;48.118;11.600;2023-04-03T07:19:26;5.30;;;4.00;;
1829;SDS011;914;48.118;11.600;2023-04-03T07:21:53;7.63;;;3.97;;
1829;SDS011;914;48.118;11.600;2023-04-03T07:24:19;4.43;;;3.10;;
1829;SDS011;914;48.118;11.600;2023-04-03T07:26:48;7.00;;;3.20;;
1829;SDS011;914;48.118;11.600;2023-04-03T07:29:14;5.47;;;2.90;;
1829;SDS011;914;48.118;11.600;2023-04-03T07:31:40;4.60;;;3.37;;
1829;SDS011;914;48.118;11.600;2023-04-03T07:34:07;3.97;;;3.57;;
1829;SDS011;914;48.118;11.600;2023-04-03T07:36:32;4.37;;;3.60;;
1829;SDS011;914;48.118;11.600;2023-04-03T07:38:58;4.30;;;3.13;;
1829;SDS011;914;48.118;11.600;2023-04-03T07:41:24;4.57;;;3.83;;
1829;SDS011;914;48.118;11.600;2023-04-03T07:43:50;6.03;;;3.37;;
1829;SDS011;914;48.118;11.600;2023-04-03T07:46:16;8.47;;;4.10;;
1829;SDS011;914;48.118;11.600;2023-04-03T07:48:42;5.73;;;3.90;;
1829;SDS011;914;48.118;11.600;2023-04-03T07:51:09;4.97;;;4.57;;
1829;SDS011;914;48.118;11.600;2023-04-03T07:53:35;6.27;;;3.93;;
1829;SDS011;914;48.118;11.600;2023-04-03T07:56:04;4.03;;;3.37;;
1829;SDS011;914;48.118;11.600;2023-04-03T07:58:30;4.47;;;4.07;;
1829;SDS011;914;48.118;11.600;2023-04-03T08:00:57;6.37;;;4.57;;
1829;SDS011;914;48.118;11.600;2023-04-03T08:03:23;8.43;;;3.67;;
1829;SDS011;914;48.118;11.600;2023-04-03T08:05:49;9.20;;;3.83;;
1829;SDS011;914;48.118;11.600;2023-04-03T08:08:17;5.53;;;4.40;;
1829;SDS011;914;48.118;11.600;2023-04-03T08:10:48;6.17;;;4.30;;
1829;SDS011;914;48.118;11.600;2023-04-03T08:13:17;7.63;;;4.73;;
1829;SDS011;914;48.118;11.600;2023-04-03T08:15:43;7.30;;;5.17;;
1829;SDS011;914;48.118;11.600;2023-04-03T08:18:09;6.33;;;3.83;;
1829;SDS011;914;48.118;11.600;2023-04-03T08:20:35;6.93;;;4.37;;
1829;SDS011;914;48.118;11.600;2023-04-03T08:23:03;4.70;;;4.27;;
1829;SDS011;914;48.118;11.600;2023-04-03T08:25:29;5.13;;;4.60;;
1829;SDS011;914;48.118;11.600;2023-04-03T08:27:55;8.10;;;4.90;;
1829;SDS011;914;48.118;11.600;2023-04-03T08:30:21;7.20;;;4.50;;
1829;SDS011;914;48.118;11.600;2023-04-03T08:32:47;6.07;;;4.50;;
1829;SDS011;914;48.118;11.600;2023-04-03T08:35:12;7.00;;;4.67;;
1829;SDS011;914;48.118;11.600;2023-04-03T08:37:39;10.40;;;5.50;;
1829;SDS011;914;48.118;11.600;2023-04-03T08:40:05;5.13;;;4.63;;
1829;SDS011;914;48.118;11.600;2023-04-03T08:50:49;8.37;;;4.03;;
1829;SDS011;914;48.118;11.600;2023-04-03T08:53:19;5.23;;;4.30;;
1829;SDS011;914;48.118;11.600;2023-04-03T08:55:49;3.97;;;3.20;;
1829;SDS011;914;48.118;11.600;2023-04-03T09:00:50;9.60;;;4.37;;
1829;SDS011;914;48.118;11.600;2023-04-03T09:03:32;5.27;;;3.77;;
1829;SDS011;914;48.118;11.600;2023-04-03T09:06:14;5.53;;;4.23;;
1829;SDS011;914;48.118;11.600;2023-04-03T09:08:47;7.73;;;4.33;;
1829;SDS011;914;48.118;11.600;2023-04-03T09:23:39;10.20;;;4.07;;
1829;SDS011;914;48.118;11.600;2023-04-03T09:26:18;5.33;;;4.00;;
1829;SDS011;914;48.118;11.600;2023-04-03T09:28:48;4.50;;;4.10;;
1829;SDS011;914;48.118;11.600;2023-04-03T09:33:52;7.60;;;3.90;;
1829;SDS011;914;48.118;11.600;2023-04-03T09:36:40;4.90;;;4.17;;
1829;SDS011;914;48.118;11.600;2023-04-03T09:39:17;6.73;;;3.90;;
1829;SDS011;914;48.118;11.600;2023-04-03T09:44:44;5.47;;;3.90;;
1829;SDS011;914;48.118;11.600;2023-04-03T09:47:24;6.93;;;3.70;;
1829;SDS011;914;48.118;11.600;2023-04-03T09:49:56;8.43;;;3.60;;
1829;SDS011;914;48.118;11.600;2023-04-03T09:52:34;3.53;;;3.13;;
1829;SDS011;914;48.118;11.600;2023-04-03T09:55:06;3.90;;;2.90;;
1829;SDS011;914;48.118;11.600;2023-04-03T09:57:33;3.90;;;3.30;;
1829;SDS011;914;48.118;11.600;2023-04-03T10:00:00;5.80;;;3.17;;
1829;SDS011;914;48.118;11.600;2023-04-03T10:02:39;3.40;;;3.10;;
1829;SDS011;914;48.118;11.600;2023-04-03T10:10:43;3.80;;;2.77;;
1829;SDS011;914;48.118;11.600;2023-04-03T10:13:16;5.60;;;3.10;;
1829;SDS011;914;48.118;11.600;2023-04-03T10:15:51;3.70;;;3.30;;
1829;SDS011;914;48.118;11.600;2023-04-03T10:18:44;5.83;;;3.20;;
1829;SDS011;914;48.118;11.600;2023-04-03T10:24:03;8.97;;;3.73;;
1829;SDS011;914;48.118;11.600;2023-04-03T10:26:35;5.03;;;3.87;;
1829;SDS011;914;48.118;11.600;2023-04-03T10:35:27;4.10;;;3.70;;
1829;SDS011;914;48.118;11.600;2023-04-03T10:43:38;4.20;;;3.10;;
1829;SDS011;914;48.118;11.600;2023-04-03T10:49:27;4.73;;;3.57;;
1829;SDS011;914;48.118;11.600;2023-04-03T10:57:40;6.47;;;3.07;;
1829;SDS011;914;48.118;11.600;2023-04-03T11:00:07;3.80;;;2.90;;
1829;SDS011;914;48.118;11.600;2023-04-03T11:03:00;8.80;;;3.53;;
1829;SDS011;914;48.118;11.600;2023-04-03T11:05:44;4.33;;;3.57;;
1829;SDS011;914;48.118;11.600;2023-04-03T11:08:21;4.17;;;3.20;;
1829;SDS011;914;48.118;11.600;2023-04-03T11:10:51;4.20;;;3.80;;
1829;SDS011;914;48.118;11.600;2023-04-03T11:13:21;4.03;;;3.10;;
1829;SDS011;914;48.118;11.600;2023-04-03T11:16:00;4.97;;;3.93;;
1829;SDS011;914;48.118;11.600;2023-04-03T11:18:37;5.17;;;2.80;;
1829;SDS011;914;48.118;11.600;2023-04-03T11:21:27;4.47;;;3.50;;
1829;SDS011;914;48.118;11.600;2023-04-03T11:24:04;3.73;;;3.43;;
1829;SDS011;914;48.118;11.600;2023-04-03T11:26:40;3.07;;;2.77;;
1829;SDS011;914;48.118;11.600;2023-04-03T11:29:14;4.60;;;2.60;;
1829;SDS011;914;48.118;11.600;2023-04-03T11:31:56;3.47;;;2.63;;
1829;SDS011;914;48.118;11.600;2023-04-03T11:34:46;3.80;;;2.47;;
1829;SDS011;914;48.118;11.600;2023-04-03T11:39:58;3.43;;;2.10;;
1829;SDS011;914;48.118;11.600;2023-04-03T11:42:34;2.50;;;2.30;;
1829;SDS011;914;48.118;11.600;2023-04-03T11:45:15;5.53;;;2.50;;
1829;SDS011;914;48.118;11.600;2023-04-03T11:50:44;4.07;;;2.40;;
1829;SDS011;914;48.118;11.600;2023-04-03T11:58:26;3.90;;;2.53;;
1829;SDS011;914;48.118;11.600;2023-04-03T12:00:58;3.60;;;2.40;;
1829;SDS011;914;48.118;11.600;2023-04-03T12:05:51;2.23;;;2.03;;
1829;SDS011;914;48.118;11.600;2023-04-03T12:08:24;2.40;;;1.87;;
1829;SDS011;914;48.118;11.600;2023-04-03T12:18:56;2.60;;;1.90;;
1829;SDS011;914;48.118;11.600;2023-04-03T12:26:38;6.73;;;2.40;;
1829;SDS011;914;48.118;11.600;2023-04-03T12:29:12;2.53;;;2.00;;
1829;SDS011;914;48.118;11.600;2023-04-03T12:31:54;3.80;;;1.63;;
1829;SDS011;914;48.118;11.600;2023-04-03T12:48:28;1.70;;;1.50;;
1829;SDS011;914;48.118;11.600;2023-04-03T12:50:57;3.73;;;2.10;;
1829;SDS011;914;48.118;11.600;2023-04-03T12:53:27;2.80;;;1.87;;
1829;SDS011;914;48.118;11.600;2023-04-03T12:56:17;3.17;;;1.60;;
1829;SDS011;914;48.118;11.600;2023-04-03T12:58:46;6.63;;;1.83;;
1829;SDS011;914;48.118;11.600;2023-04-03T13:01:16;6.33;;;1.93;;
1829;SDS011;914;48.118;11.600;2023-04-03T13:03:47;2.53;;;2.10;;
1829;SDS011;914;48.118;11.600;2023-04-03T13:06:17;2.60;;;1.97;;
1829;SDS011;914;48.118;11.600;2023-04-03T13:08:58;5.77;;;1.93;;
1829;SDS011;914;48.118;11.600;2023-04-03T13:11:25;2.73;;;1.70;;
1829;SDS011;914;48.118;11.600;2023-04-03T13:14:00;4.27;;;1.80;;
1829;SDS011;914;48.118;11.600;2023-04-03T13:16:30;3.77;;;2.00;;
1829;SDS011;914;48.118;11.600;2023-04-03T13:18:57;5.00;;;1.97;;
1829;SDS011;914;48.118;11.600;2023-04-03T13:21:26;3.10;;;1.90;;
1829;SDS011;914;48.118;11.600;2023-04-03T13:23:58;1.70;;;1.57;;
1829;SDS011;914;48.118;11.600;2023-04-03T13:26:27;4.20;;;1.60;;
1829;SDS011;914;48.118;11.600;2023-04-03T13:28:57;6.47;;;1.93;;
1829;SDS011;914;48.118;11.600;2023-04-03T13:31:29;2.23;;;1.77;;
1829;SDS011;914;48.118;11.600;2023-04-03T13:41:50;3.03;;;2.00;;
1829;SDS011;914;48.118;11.600;2023-04-03T13:46:46;4.13;;;1.80;;
1829;SDS011;914;48.118;11.600;2023-04-03T13:49:34;2.60;;;1.53;;
1829;SDS011;914;48.118;11.600;2023-04-03T13:52:24;1.70;;;1.60;;
1829;SDS011;914;48.118;11.600;2023-04-03T13:54:57;3.17;;;1.63;;
1829;SDS011;914;48.118;11.600;2023-04-03T13:57:25;1.20;;;1.10;;
1829;SDS011;914;48.118;11.600;2023-04-03T13:59:52;1.50;;;1.40;;
1829;SDS011;914;48.118;11.600;2023-04-03T14:02:31;3.97;;;1.60;;
1829;SDS011;914;48.118;11.600;2023-04-03T14:04:59;2.50;;;1.73;;
1829;SDS011;914;48.118;11.600;2023-04-03T14:07:29;7.30;;;1.80;;
1829;SDS011;914;48.118;11.600;2023-04-03T14:09:56;2.50;;;1.50;;
1829;SDS011;914;48.118;11.600;2023-04-03T14:12:35;3.37;;;1.83;;
1829;SDS011;914;48.118;11.600;2023-04-03T14:15:05;1.80;;;1.60;;
1829;SDS011;914;48.118;11.600;2023-04-03T14:17:41;2.90;;;1.50;;
1829;SDS011;914;48.118;11.600;2023-04-03T14:20:10;2.40;;;1.50;;
1829;SDS011;914;48.118;11.600;2023-04-03T14:22:40;2.13;;;1.60;;
1829;SDS011;914;48.118;11.600;2023-04-03T14:25:06;9.73;;;1.73;;
1829;SDS011;914;48.118;11.600;2023-04-03T14:27:36;2.00;;;1.50;;
1829;SDS011;914;48.118;11.600;2023-04-03T14:30:05;5.50;;;1.93;;
1829;SDS011;914;48.118;11.600;2023-04-03T14:32:33;5.23;;;1.63;;
1829;SDS011;914;48.118;11.600;2023-04-03T14:34:59;2.10;;;1.20;;
1829;SDS011;914;48.118;11.600;2023-04-03T14:37:27;1.93;;;1.40;;
1829;SDS011;914;48.118;11.600;2023-04-03T14:39:54;4.50;;;1.60;;
1829;SDS011;914;48.118;11.600;2023-04-03T14:42:26;6.57;;;1.63;;
1829;SDS011;914;48.118;11.600;2023-04-03T14:44:54;3.10;;;1.37;;
1829;SDS011;914;48.118;11.600;2023-04-03T14:47:21;2.90;;;1.70;;
1829;SDS011;914;48.118;11.600;2023-04-03T14:49:50;2.57;;;1.53;;
1829;SDS011;914;48.118;11.600;2023-04-03T14:52:18;1.67;;;1.50;;
1829;SDS011;914;48.118;11.600;2023-04-03T14:54:49;2.30;;;1.60;;
1829;SDS011;914;48.118;11.600;2023-04-03T14:57:16;10.53;;;1.60;;
1829;SDS011;914;48.118;11.600;2023-04-03T14:59:43;1.63;;;1.53;;
1829;SDS011;914;48.118;11.600;2023-04-03T15:04:48;3.00;;;1.57;;
1829;SDS011;914;48.118;11.600;2023-04-03T15:07:13;2.77;;;1.60;;
1829;SDS011;914;48.118;11.600;2023-04-03T15:09:39;3.37;;;1.50;;
1829;SDS011;914;48.118;11.600;2023-04-03T15:12:05;1.63;;;1.33;;
1829;SDS011;914;48.118;11.600;2023-04-03T15:14:33;1.43;;;1.07;;
1829;SDS011;914;48.118;11.600;2023-04-03T15:16:58;2.37;;;1.40;;
1829;SDS011;914;48.118;11.600;2023-04-03T15:19:24;2.20;;;1.20;;
1829;SDS011;914;48.118;11.600;2023-04-03T15:21:50;1.73;;;1.00;;
1829;SDS011;914;48.118;11.600;2023-04-03T15:24:16;2.13;;;1.30;;
1829;SDS011;914;48.118;11.600;2023-04-03T15:26:41;2.30;;;1.50;;
1829;SDS011;914;48.118;11.600;2023-04-03T15:29:07;1.50;;;1.40;;
1829;SDS011;914;48.118;11.600;2023-04-03T15:31:33;2.50;;;1.30;;
1829;SDS011;914;48.118;11.600;2023-04-03T15:33:59;1.50;;;1.37;;
1829;SDS011;914;48.118;11.600;2023-04-03T15:36:24;1.60;;;1.40;;
1829;SDS011;914;48.118;11.600;2023-04-03T15:38:50;2.07;;;1.50;;
1829;SDS011;914;48.118;11.600;2023-04-03T15:41:17;1.67;;;1.33;;
1829;SDS011;914;48.118;11.600;2023-04-03T15:43:43;4.70;;;1.50;;
1829;SDS011;914;48.118;11.600;2023-04-03T15:46:09;1.37;;;1.27;;
1829;SDS011;914;48.118;11.600;2023-04-03T15:48:35;2.80;;;1.67;;
1829;SDS011;914;48.118;11.600;2023-04-03T15:51:01;2.00;;;1.40;;
1829;SDS011;914;48.118;11.600;2023-04-03T15:53:27;1.50;;;1.40;;
1829;SDS011;914;48.118;11.600;2023-04-03T15:55:53;1.10;;;1.10;;
1829;SDS011;914;48.118;11.600;2023-04-03T15:58:18;1.20;;;1.20;;
1829;SDS011;914;48.118;11.600;2023-04-03T16:00:44;2.00;;;1.50;;
1829;SDS011;914;48.118;11.600;2023-04-03T16:03:11;1.70;;;1.50;;
1829;SDS011;914;48.118;11.600;2023-04-03T16:05:42;1.80;;;1.27;;
1829;SDS011;914;48.118;11.600;2023-04-03T16:08:08;3.57;;;1.40;;
1829;SDS011;914;48.118;11.600;2023-04-03T16:10:35;1.40;;;1.27;;
1829;SDS011;914;48.118;11.600;2023-04-03T16:13:01;1.43;;;1.33;;
1829;SDS011;914;48.118;11.600;2023-04-03T16:15:27;1.57;;;1.30;;
1829;SDS011;914;48.118;11.600;2023-04-03T16:17:54;1.80;;;1.30;;
1829;SDS011;914;48.118;11.600;2023-04-03T16:20:20;3.17;;;1.60;;
1829;SDS011;914;48.118;11.600;2023-04-03T16:22:46;4.30;;;1.40;;
1829;SDS011;914;48.118;11.600;2023-04-03T16:25:13;3.30;;;1.60;;
1829;SDS011;914;48.118;11.600;2023-04-03T16:27:38;2.13;;;1.60;;
1829;SDS011;914;48.118;11.600;2023-04-03T16:30:05;2.87;;;1.60;;
1829;SDS011;914;48.118;11.600;2023-04-03T16:32:32;4.47;;;1.70;;
1829;SDS011;914;48.118;11.600;2023-04-03T16:34:58;1.60;;;1.40;;
1829;SDS011;914;48.118;11.600;2023-04-03T16:37:24;1.57;;;1.40;;
1829;SDS011;914;48.118;11.600;2023-04-03T16:39:50;2.90;;;1.50;;
1829;SDS011;914;48.118;11.600;2023-04-03T16:42:16;3.73;;;1.40;;
1829;SDS011;914;48.118;11.600;2023-04-03T16:44:42;2.73;;;1.40;;
1829;SDS011;914;48.118;11.600;2023-04-03T16:47:07;6.73;;;1.63;;
1829;SDS011;914;48.118;11.600;2023-04-03T16:49:34;2.67;;;1.33;;
1829;SDS011;914;48.118;11.600;2023-04-03T16:52:00;3.80;;;1.50;;
1829;SDS011;914;48.118;11.600;2023-04-03T16:54:27;2.03;;;1.30;;
1829;SDS011;914;48.118;11.600;2023-04-03T16:56:53;1.70;;;1.60;;
1829;SDS011;914;48.118;11.600;2023-04-03T16:59:19;1.57;;;1.37;;
1829;SDS011;914;48.118;11.600;2023-04-03T17:01:45;1.63;;;1.40;;
1829;SDS011;914;48.118;11.600;2023-04-03T17:04:11;2.73;;;1.70;;
1829;SDS011;914;48.118;11.600;2023-04-03T17:06:37;1.77;;;1.50;;
1829;SDS011;914;48.118;11.600;2023-04-03T17:09:04;1.57;;;1.30;;
1829;SDS011;914;48.118;11.600;2023-04-03T17:11:30;1.50;;;1.40;;
1829;SDS011;914;48.118;11.600;2023-04-03T17:13:56;3.13;;;1.60;;
1829;SDS011;914;48.118;11.600;2023-04-03T17:16:25;3.00;;;1.60;;
1829;SDS011;914;48.118;11.600;2023-04-03T17:18:51;3.57;;;1.77;;
1829;SDS011;914;48.118;11.600;2023-04-03T17:21:18;2.60;;;1.50;;
1829;SDS011;914;48.118;11.600;2023-04-03T17:23:46;1.90;;;1.50;;